Time,TemperatureF,DewpointF,PressureIn,WindDirection,WindDirectionDegrees,WindSpeedMPH,WindSpeedGustMPH,Humidity,HourlyPrecipIn,Conditions,Clouds,dailyrainin,SoftwareType,DateUTC
2013-05-06 00:02:00,60.0,25.0,-100.00,East,80,4.0,14.0,25,0.00,,,-99.99,,2013-05-06 04:02:00,
2013-05-06 00:12:00,61.0,28.0,-100.00,ESE,103,3.0,14.0,27,0.00,,,-99.99,,2013-05-06 04:12:00,
2013-05-06 00:23:00,60.0,28.0,-100.00,SE,131,4.0,14.0,29,0.00,,,-99.99,,2013-05-06 04:23:00,
2013-05-06 00:32:00,60.0,30.0,-100.00,SE,145,2.0,14.0,31,0.00,,,-99.99,,2013-05-06 04:32:00,
2013-05-06 00:43:00,60.0,30.0,-100.00,SE,138,2.0,14.0,31,0.00,,,-99.99,,2013-05-06 04:43:00,
2013-05-06 00:52:00,60.0,30.0,-100.00,ESE,122,4.0,14.0,32,0.00,,,-99.99,,2013-05-06 04:52:00,
2013-05-06 01:02:00,60.0,32.0,-100.00,ENE,69,2.0,14.0,33,0.00,,,-99.99,,2013-05-06 05:02:00,
2013-05-06 01:12:00,59.0,32.0,-100.00,ESE,117,5.0,14.0,34,0.00,,,-99.99,,2013-05-06 05:12:00,
2013-05-06 01:22:00,59.0,32.0,-100.00,East,88,3.0,14.0,37,0.00,,,-99.99,,2013-05-06 05:22:00,
2013-05-06 01:32:00,59.0,32.0,-100.00,East,88,2.0,14.0,37,0.00,,,-99.99,,2013-05-06 05:32:00,
2013-05-06 01:42:00,59.0,32.0,-100.00,East,88,2.0,14.0,37,0.00,,,-99.99,,2013-05-06 05:42:00,
2013-05-06 01:52:00,58.0,32.0,-100.00,NE,45,2.0,14.0,38,0.00,,,-99.99,,2013-05-06 05:52:00,
2013-05-06 02:02:00,58.0,32.0,-100.00,SSE,155,4.0,14.0,40,0.00,,,-99.99,,2013-05-06 06:02:00,
2013-05-06 02:12:00,58.0,32.0,-100.00,East,96,3.0,14.0,40,0.00,,,-99.99,,2013-05-06 06:12:00,
2013-05-06 02:22:00,57.0,32.0,-100.00,East,80,1.0,14.0,41,0.00,,,-99.99,,2013-05-06 06:22:00,
2013-05-06 02:32:00,57.0,34.0,-100.00,ESE,104,2.0,14.0,42,0.00,,,-99.99,,2013-05-06 06:32:00,
2013-05-06 02:42:00,57.0,34.0,-100.00,ESE,105,2.0,14.0,44,0.00,,,-99.99,,2013-05-06 06:42:00,
2013-05-06 02:52:00,57.0,34.0,-100.00,East,88,2.0,14.0,44,0.00,,,-99.99,,2013-05-06 06:52:00,
2013-05-06 03:01:00,57.0,36.0,-100.00,South,172,2.0,14.0,45,0.00,,,-99.99,,2013-05-06 07:01:00,
2013-05-06 03:11:00,56.0,34.0,-100.00,SSE,159,2.0,14.0,45,0.00,,,-99.99,,2013-05-06 07:11:00,
2013-05-06 03:22:00,56.0,34.0,-100.00,ESE,105,2.0,14.0,45,0.00,,,-99.99,,2013-05-06 07:22:00,
2013-05-06 03:32:00,56.0,34.0,-100.00,East,86,3.0,14.0,46,0.00,,,-99.99,,2013-05-06 07:32:00,
2013-05-06 03:42:00,55.0,34.0,-100.00,South,184,2.0,14.0,47,0.00,,,-99.99,,2013-05-06 07:42:00,
2013-05-06 03:52:00,56.0,36.0,-100.00,East,97,2.0,14.0,47,0.00,,,-99.99,,2013-05-06 07:52:00,
2013-05-06 04:02:00,56.0,36.0,-100.00,SE,138,1.0,14.0,47,0.00,,,-99.99,,2013-05-06 08:02:00,
2013-05-06 04:12:00,56.0,36.0,-100.00,SE,132,1.0,14.0,49,0.00,,,-99.99,,2013-05-06 08:12:00,
2013-05-06 04:22:00,55.0,36.0,-100.00,ENE,59,2.0,14.0,49,0.00,,,-99.99,,2013-05-06 08:22:00,
2013-05-06 04:32:00,55.0,36.0,-100.00,SE,129,1.0,14.0,50,0.00,,,-99.99,,2013-05-06 08:32:00,
2013-05-06 04:42:00,55.0,36.0,-100.00,SSW,210,0.0,14.0,50,0.00,,,-99.99,,2013-05-06 08:42:00,
2013-05-06 04:52:00,55.0,36.0,-100.00,SSW,206,1.0,14.0,51,0.00,,,-99.99,,2013-05-06 08:52:00,
2013-05-06 05:02:00,55.0,36.0,-100.00,SSW,213,1.0,1.0,51,0.00,,,-99.99,,2013-05-06 09:02:00,
2013-05-06 05:11:00,55.0,36.0,-100.00,East,94,1.0,1.0,51,0.00,,,-99.99,,2013-05-06 09:11:00,
2013-05-06 05:22:00,54.0,36.0,-100.00,East,79,1.0,2.0,53,0.00,,,-99.99,,2013-05-06 09:22:00,
2013-05-06 05:33:00,54.0,36.0,-100.00,ESE,120,1.0,2.0,53,0.00,,,-99.99,,2013-05-06 09:33:00,
2013-05-06 05:43:00,54.0,36.0,-100.00,ENE,60,1.0,2.0,53,0.00,,,-99.99,,2013-05-06 09:43:00,
2013-05-06 05:53:00,54.0,36.0,-100.00,East,97,2.0,2.0,54,0.00,,,-99.99,,2013-05-06 09:53:00,
2013-05-06 06:03:00,53.0,37.0,-100.00,ENE,73,1.0,2.0,55,0.00,,,-99.99,,2013-05-06 10:03:00,
2013-05-06 06:12:00,53.0,37.0,-100.00,SSE,152,1.0,2.0,56,0.00,,,-99.99,,2013-05-06 10:12:00,
2013-05-06 06:22:00,54.0,37.0,-100.00,ESE,103,1.0,2.0,56,0.00,,,-99.99,,2013-05-06 10:22:00,
2013-05-06 06:33:00,55.0,39.0,-100.00,ESE,111,1.0,2.0,59,0.00,,,-99.99,,2013-05-06 10:33:00,
2013-05-06 06:42:00,53.0,37.0,-100.00,SE,134,1.0,2.0,59,0.00,,,-99.99,,2013-05-06 10:42:00,
2013-05-06 06:52:00,54.0,39.0,-100.00,SE,139,2.0,4.0,59,0.00,,,-99.99,,2013-05-06 10:52:00,
2013-05-06 07:02:00,53.0,39.0,-100.00,ESE,110,2.0,4.0,60,0.00,,,-99.99,,2013-05-06 11:02:00,
2013-05-06 07:12:00,53.0,39.0,-100.00,ESE,118,2.0,4.0,60,0.00,,,-99.99,,2013-05-06 11:12:00,
2013-05-06 07:22:00,53.0,39.0,-100.00,SE,142,2.0,4.0,62,0.00,,,-99.99,,2013-05-06 11:22:00,
2013-05-06 07:32:00,53.0,39.0,-100.00,East,88,2.0,4.0,62,0.00,,,-99.99,,2013-05-06 11:32:00,
2013-05-06 07:42:00,53.0,39.0,-100.00,East,97,1.0,4.0,62,0.00,,,-99.99,,2013-05-06 11:42:00,
2013-05-06 07:52:00,55.0,41.0,-100.00,SSE,148,2.0,4.0,63,0.00,,,-99.99,,2013-05-06 11:52:00,
2013-05-06 08:02:00,54.0,39.0,-100.00,East,94,2.0,4.0,62,0.00,,,-99.99,,2013-05-06 12:02:00,
2013-05-06 08:12:00,53.0,39.0,-100.00,NE,53,3.0,4.0,62,0.00,,,-99.99,,2013-05-06 12:12:00,
2013-05-06 08:22:00,54.0,39.0,-100.00,ESE,120,2.0,4.0,62,0.00,,,-99.99,,2013-05-06 12:22:00,
2013-05-06 08:32:00,54.0,41.0,-100.00,ESE,114,4.0,4.0,62,0.00,,,-99.99,,2013-05-06 12:32:00,
2013-05-06 08:42:00,55.0,41.0,-100.00,East,97,2.0,4.0,60,0.00,,,-99.99,,2013-05-06 12:42:00,
2013-05-06 08:52:00,55.0,41.0,-100.00,East,94,5.0,6.0,59,0.00,,,-99.99,,2013-05-06 12:52:00,
2013-05-06 09:01:00,56.0,39.0,-100.00,East,86,2.0,6.0,55,0.00,,,-99.99,,2013-05-06 13:01:00,
2013-05-06 09:11:00,57.0,41.0,-100.00,SE,142,2.0,6.0,58,0.00,,,-99.99,,2013-05-06 13:11:00,
2013-05-06 09:21:00,58.0,41.0,-100.00,SE,127,3.0,6.0,55,0.00,,,-99.99,,2013-05-06 13:21:00,
2013-05-06 09:32:00,57.0,41.0,-100.00,SE,128,4.0,6.0,56,0.00,,,-99.99,,2013-05-06 13:32:00,
2013-05-06 09:42:00,57.0,41.0,-100.00,ENE,77,4.0,6.0,59,0.00,,,-99.99,,2013-05-06 13:42:00,
2013-05-06 09:52:00,60.0,45.0,-100.00,SSE,152,4.0,6.0,58,0.00,,,-99.99,,2013-05-06 13:52:00,
2013-05-06 10:01:00,56.0,41.0,-100.00,ESE,122,6.0,8.0,59,0.00,,,-99.99,,2013-05-06 14:01:00,
2013-05-06 10:11:00,56.0,41.0,-100.00,ESE,105,6.0,8.0,59,0.00,,,-99.99,,2013-05-06 14:11:00,
2013-05-06 10:21:00,58.0,43.0,-100.00,ESE,112,3.0,8.0,58,0.00,,,-99.99,,2013-05-06 14:21:00,
2013-05-06 10:32:00,57.0,41.0,-100.00,East,101,3.0,8.0,58,0.00,,,-99.99,,2013-05-06 14:32:00,
2013-05-06 10:42:00,58.0,43.0,-100.00,SE,141,4.0,8.0,58,0.00,,,-99.99,,2013-05-06 14:42:00,
2013-05-06 10:51:00,57.0,41.0,-100.00,East,100,5.0,8.0,58,0.00,,,-99.99,,2013-05-06 14:51:00,
2013-05-06 11:01:00,60.0,43.0,-100.00,SSE,149,4.0,8.0,56,0.00,,,-99.99,,2013-05-06 15:01:00,
2013-05-06 11:11:00,61.0,45.0,-100.00,SE,129,3.0,8.0,55,0.00,,,-99.99,,2013-05-06 15:11:00,
2013-05-06 11:21:00,63.0,45.0,-100.00,NE,49,4.0,8.0,54,0.00,,,-99.99,,2013-05-06 15:21:00,
2013-05-06 11:33:00,63.0,43.0,-100.00,SSE,151,2.0,8.0,51,0.00,,,-99.99,,2013-05-06 15:33:00,
2013-05-06 11:42:00,66.0,46.0,-100.00,NNE,14,2.0,8.0,51,0.00,,,-99.99,,2013-05-06 15:42:00,
2013-05-06 11:53:00,66.0,45.0,-100.00,SE,124,3.0,8.0,47,0.00,,,-99.99,,2013-05-06 15:53:00,
2013-05-06 12:03:00,66.0,45.0,-100.00,East,101,5.0,8.0,49,0.00,,,-99.99,,2013-05-06 16:03:00,
2013-05-06 12:13:00,65.0,45.0,-100.00,SE,124,6.0,8.0,50,0.00,,,-99.99,,2013-05-06 16:13:00,
2013-05-06 12:23:00,66.0,45.0,-100.00,SW,235,4.0,8.0,46,0.00,,,-99.99,,2013-05-06 16:23:00,
2013-05-06 12:33:00,66.0,45.0,-100.00,South,170,7.0,10.0,49,0.00,,,-99.99,,2013-05-06 16:33:00,
2013-05-06 12:42:00,66.0,45.0,-100.00,SE,128,4.0,10.0,47,0.00,,,-99.99,,2013-05-06 16:42:00,
2013-05-06 12:52:00,69.0,46.0,-100.00,SW,220,4.0,10.0,47,0.00,,,-99.99,,2013-05-06 16:52:00,
2013-05-06 13:03:00,69.0,48.0,-100.00,SSE,168,4.0,10.0,47,0.00,,,-99.99,,2013-05-06 17:03:00,
2013-05-06 13:12:00,68.0,45.0,-100.00,WSW,252,3.0,10.0,46,0.00,,,-99.99,,2013-05-06 17:12:00,
2013-05-06 13:23:00,69.0,46.0,-100.00,East,94,3.0,10.0,46,0.00,,,-99.99,,2013-05-06 17:23:00,
2013-05-06 13:32:00,67.0,46.0,-100.00,East,94,6.0,10.0,49,0.00,,,-99.99,,2013-05-06 17:32:00,
2013-05-06 13:42:00,68.0,45.0,-100.00,SE,134,6.0,10.0,46,0.00,,,-99.99,,2013-05-06 17:42:00,
2013-05-06 13:52:00,69.0,46.0,-100.00,East,84,4.0,10.0,46,0.00,,,-99.99,,2013-05-06 17:52:00,
2013-05-06 14:01:00,69.0,46.0,-100.00,SSE,149,2.0,10.0,45,0.00,,,-99.99,,2013-05-06 18:01:00,
2013-05-06 14:12:00,67.0,45.0,-100.00,ENE,77,2.0,10.0,46,0.00,,,-99.99,,2013-05-06 18:12:00,
2013-05-06 14:22:00,68.0,46.0,-100.00,ESE,114,3.0,10.0,49,0.00,,,-99.99,,2013-05-06 18:22:00,
2013-05-06 14:32:00,70.0,48.0,-100.00,East,90,2.0,10.0,47,0.00,,,-99.99,,2013-05-06 18:32:00,
2013-05-06 14:43:00,68.0,46.0,-100.00,South,176,4.0,10.0,47,0.00,,,-99.99,,2013-05-06 18:43:00,
2013-05-06 14:52:00,69.0,46.0,-100.00,ESE,108,2.0,10.0,47,0.00,,,-99.99,,2013-05-06 18:52:00,
2013-05-06 15:01:00,68.0,46.0,-100.00,ESE,122,5.0,10.0,47,0.00,,,-99.99,,2013-05-06 19:01:00,
2013-05-06 15:11:00,68.0,46.0,-100.00,SSE,166,6.0,10.0,49,0.00,,,-99.99,,2013-05-06 19:11:00,
2013-05-06 15:22:00,68.0,46.0,-100.00,ENE,59,5.0,10.0,47,0.00,,,-99.99,,2013-05-06 19:22:00,
2013-05-06 15:32:00,67.0,46.0,-100.00,NNE,28,6.0,10.0,47,0.00,,,-99.99,,2013-05-06 19:32:00,
2013-05-06 15:42:00,68.0,46.0,-100.00,SE,125,6.0,10.0,49,0.00,,,-99.99,,2013-05-06 19:42:00,
2013-05-06 15:52:00,67.0,46.0,-100.00,NE,56,4.0,10.0,50,0.00,,,-99.99,,2013-05-06 19:52:00,
2013-05-06 16:02:00,67.0,46.0,-100.00,SE,129,4.0,10.0,51,0.00,,,-99.99,,2013-05-06 20:02:00,
2013-05-06 16:11:00,67.0,48.0,-100.00,East,83,3.0,10.0,53,0.00,,,-99.99,,2013-05-06 20:11:00,
2013-05-06 16:21:00,67.0,48.0,-100.00,ESE,120,1.0,10.0,53,0.00,,,-99.99,,2013-05-06 20:21:00,
2013-05-06 16:32:00,66.0,48.0,-100.00,ESE,120,1.0,10.0,54,0.00,,,-99.99,,2013-05-06 20:32:00,
2013-05-06 16:42:00,66.0,52.0,-100.00,South,180,1.0,10.0,62,6.22,,,-99.99,,2013-05-06 20:42:00,
2013-05-06 16:52:00,63.0,54.0,-100.00,SSW,204,2.0,10.0,73,0.00,,,-99.99,,2013-05-06 20:52:00,
2013-05-06 17:01:00,62.0,54.0,-100.00,SE,125,1.0,10.0,77,0.00,,,-99.99,,2013-05-06 21:01:00,
2013-05-06 17:11:00,62.0,54.0,-100.00,South,190,1.0,10.0,77,0.00,,,-99.99,,2013-05-06 21:11:00,
2013-05-06 17:21:00,63.0,54.0,-100.00,East,93,0.0,10.0,76,0.00,,,-99.99,,2013-05-06 21:21:00,
2013-05-06 17:33:00,64.0,55.0,-100.00,WNW,302,1.0,10.0,76,0.00,,,-99.99,,2013-05-06 21:33:00,
2013-05-06 17:43:00,65.0,55.0,-100.00,WNW,302,0.0,10.0,73,0.00,,,-99.99,,2013-05-06 21:43:00,
2013-05-06 17:53:00,65.0,54.0,-100.00,WNW,303,0.0,10.0,72,0.00,,,-99.99,,2013-05-06 21:53:00,
2013-05-06 18:03:00,65.0,54.0,-100.00,East,96,0.0,10.0,67,0.00,,,-99.99,,2013-05-06 22:03:00,
2013-05-06 18:12:00,65.0,52.0,-100.00,SW,221,0.0,10.0,66,0.00,,,-99.99,,2013-05-06 22:12:00,
2013-05-06 18:22:00,66.0,54.0,-100.00,SSW,210,1.0,10.0,68,0.00,,,-99.99,,2013-05-06 22:22:00,
2013-05-06 18:33:00,67.0,52.0,-100.00,SSE,168,0.0,10.0,63,0.00,,,-99.99,,2013-05-06 22:33:00,
2013-05-06 18:45:00,66.0,54.0,-100.00,SSW,208,0.0,10.0,66,0.00,,,-99.99,,2013-05-06 22:45:00,
2013-05-06 18:52:00,65.0,54.0,-100.00,SW,225,1.0,10.0,68,0.00,,,-99.99,,2013-05-06 22:52:00,
2013-05-06 19:03:00,65.0,52.0,-100.00,South,169,0.0,10.0,67,0.00,,,-99.99,,2013-05-06 23:03:00,
2013-05-06 19:12:00,67.0,55.0,-100.00,NE,52,1.0,10.0,71,0.00,,,-99.99,,2013-05-06 23:12:00,
2013-05-06 19:22:00,64.0,52.0,-100.00,East,91,0.0,10.0,69,0.00,,,-99.99,,2013-05-06 23:22:00,
2013-05-06 19:32:00,66.0,52.0,-100.00,SSW,200,1.0,10.0,64,0.00,,,-99.99,,2013-05-06 23:32:00,
2013-05-06 19:42:00,65.0,52.0,-100.00,SSE,149,1.0,10.0,67,0.00,,,-99.99,,2013-05-06 23:42:00,
2013-05-06 19:52:00,64.0,52.0,-100.00,SSW,207,4.0,10.0,69,1.14,,,-99.99,,2013-05-06 23:52:00,
2013-05-06 20:01:00,62.0,54.0,-100.00,NNW,337,2.0,10.0,76,0.00,,,-99.99,,2013-05-07 00:01:00,
2013-05-06 20:12:00,62.0,54.0,-100.00,WSW,249,1.0,10.0,77,0.00,,,-99.99,,2013-05-07 00:12:00,
2013-05-06 20:22:00,62.0,54.0,-100.00,South,186,2.0,10.0,76,0.00,,,-99.99,,2013-05-07 00:22:00,
2013-05-06 20:32:00,62.0,54.0,-100.00,West,259,1.0,10.0,77,0.00,,,-99.99,,2013-05-07 00:32:00,
2013-05-06 20:42:00,62.0,54.0,-100.00,South,187,1.0,10.0,77,0.00,,,-99.99,,2013-05-07 00:42:00,
2013-05-06 20:52:00,62.0,54.0,-100.00,SSE,156,0.0,10.0,77,0.00,,,-99.99,,2013-05-07 00:52:00,
2013-05-06 21:01:00,61.0,54.0,-100.00,SE,134,0.0,10.0,80,0.00,,,-99.99,,2013-05-07 01:01:00,
2013-05-06 21:11:00,61.0,54.0,-100.00,South,183,0.0,10.0,81,0.00,,,-99.99,,2013-05-07 01:11:00,
2013-05-06 21:21:00,60.0,54.0,-100.00,ESE,114,0.0,10.0,82,0.00,,,-99.99,,2013-05-07 01:21:00,
2013-05-06 21:32:00,60.0,54.0,-100.00,SE,138,0.0,10.0,82,0.00,,,-99.99,,2013-05-07 01:32:00,
2013-05-06 21:42:00,59.0,54.0,-100.00,ESE,108,1.0,10.0,84,0.00,,,-99.99,,2013-05-07 01:42:00,
2013-05-06 21:52:00,59.0,54.0,-100.00,SSE,160,0.0,10.0,84,0.00,,,-99.99,,2013-05-07 01:52:00,
2013-05-06 22:02:00,59.0,54.0,-100.00,SSE,160,0.0,10.0,84,0.00,,,-99.99,,2013-05-07 02:02:00,
2013-05-06 22:11:00,58.0,54.0,-100.00,ENE,67,0.0,10.0,86,0.00,,,-99.99,,2013-05-07 02:11:00,
2013-05-06 22:22:00,58.0,54.0,-100.00,East,87,0.0,10.0,86,0.00,,,-99.99,,2013-05-07 02:22:00,
2013-05-06 22:32:00,58.0,54.0,-100.00,East,100,0.0,10.0,86,0.00,,,-99.99,,2013-05-07 02:32:00,
2013-05-06 22:42:00,59.0,54.0,-100.00,ENE,64,1.0,10.0,84,0.00,,,-99.99,,2013-05-07 02:42:00,
2013-05-06 22:52:00,60.0,52.0,-100.00,ESE,120,1.0,10.0,76,0.00,,,-99.99,,2013-05-07 02:52:00,
2013-05-06 23:02:00,61.0,50.0,-100.00,SSW,210,1.0,10.0,72,0.00,,,-99.99,,2013-05-07 03:02:00,
2013-05-06 23:12:00,61.0,50.0,-100.00,NE,38,1.0,10.0,69,0.00,,,-99.99,,2013-05-07 03:12:00,
2013-05-06 23:22:00,61.0,48.0,-100.00,ENE,64,1.0,10.0,67,0.00,,,-99.99,,2013-05-07 03:22:00,
2013-05-06 23:32:00,61.0,48.0,-100.00,ENE,64,1.0,10.0,67,0.00,,,-99.99,,2013-05-07 03:32:00,
2013-05-06 23:43:00,62.0,50.0,-100.00,SE,134,1.0,10.0,67,0.00,,,-99.99,,2013-05-07 03:43:00,
2013-05-06 23:53:00,61.0,48.0,-100.00,ESE,104,1.0,10.0,67,0.00,,,-99.99,,2013-05-07 03:53:00,